sensor_id;sensor_type;location;lat;lon;timestamp;pressure;altitude;pressure_sealevel;temperature;humidity
48095;BME280;33874;52.070;-0.516;2023-02-15T00:08:44;102315.32;;;1.00;77.74
48095;BME280;33874;52.070;-0.516;2023-02-15T00:11:33;102312.98;;;0.95;77.71
48095;BME280;33874;52.070;-0.516;2023-02-15T00:14:39;102311.00;;;0.91;77.80
48095;BME280;33874;52.070;-0.516;2023-02-15T00:17:10;102310.32;;;0.89;77.82
48095;BME280;33874;52.070;-0.516;2023-02-15T00:22:58;102295.52;;;0.85;77.89
48095;BME280;33874;52.070;-0.516;2023-02-15T00:25:49;102285.85;;;0.84;78.08
48095;BME280;33874;52.070;-0.516;2023-02-15T00:28:58;102278.38;;;0.86;78.38
48095;BME280;33874;52.070;-0.516;2023-02-15T00:34:35;102265.20;;;0.88;78.55
48095;BME280;33874;52.070;-0.516;2023-02-15T00:40:12;102261.50;;;0.89;78.43
48095;BME280;33874;52.070;-0.516;2023-02-15T00:42:53;102259.45;;;0.89;78.41
48095;BME280;33874;52.070;-0.516;2023-02-15T00:45:32;102265.48;;;0.90;78.46
48095;BME280;33874;52.070;-0.516;2023-02-15T00:48:12;102259.06;;;0.91;78.61
48095;BME280;33874;52.070;-0.516;2023-02-15T00:53:41;102253.87;;;0.91;78.50
48095;BME280;33874;52.070;-0.516;2023-02-15T00:56:53;102248.71;;;0.89;78.21
48095;BME280;33874;52.070;-0.516;2023-02-15T00:59:41;102242.72;;;0.86;78.23
48095;BME280;33874;52.070;-0.516;2023-02-15T01:08:10;102242.15;;;0.71;77.75
48095;BME280;33874;52.070;-0.516;2023-02-15T01:10:38;102239.48;;;0.67;77.75
48095;BME280;33874;52.070;-0.516;2023-02-15T01:13:09;102231.77;;;0.62;78.01
48095;BME280;33874;52.070;-0.516;2023-02-15T01:15:37;102231.33;;;0.59;78.16
48095;BME280;33874;52.070;-0.516;2023-02-15T01:18:05;102230.55;;;0.55;78.36
48095;BME280;33874;52.070;-0.516;2023-02-15T01:20:34;102230.90;;;0.54;78.33
48095;BME280;33874;52.070;-0.516;2023-02-15T01:23:08;102232.66;;;0.53;78.49
48095;BME280;33874;52.070;-0.516;2023-02-15T01:25:36;102229.58;;;0.51;78.33
48095;BME280;33874;52.070;-0.516;2023-02-15T01:34:09;102207.61;;;0.51;78.95
48095;BME280;33874;52.070;-0.516;2023-02-15T01:36:40;102201.04;;;0.52;78.90
48095;BME280;33874;52.070;-0.516;2023-02-15T01:39:22;102198.77;;;0.52;78.63
48095;BME280;33874;52.070;-0.516;2023-02-15T01:41:53;102191.98;;;0.54;78.87
48095;BME280;33874;52.070;-0.516;2023-02-15T01:47:46;102183.59;;;0.59;79.26
48095;BME280;33874;52.070;-0.516;2023-02-15T01:50:21;102179.73;;;0.61;79.05
48095;BME280;33874;52.070;-0.516;2023-02-15T01:56:14;102177.11;;;0.53;78.64
48095;BME280;33874;52.070;-0.516;2023-02-15T02:04:48;102175.27;;;0.41;78.26
48095;BME280;33874;52.070;-0.516;2023-02-15T02:07:43;102171.42;;;0.34;78.26
48095;BME280;33874;52.070;-0.516;2023-02-15T02:10:24;102168.42;;;0.29;78.39
48095;BME280;33874;52.070;-0.516;2023-02-15T02:13:37;102154.30;;;0.26;78.18
48095;BME280;33874;52.070;-0.516;2023-02-15T02:20:14;102143.55;;;0.19;78.37
48095;BME280;33874;52.070;-0.516;2023-02-15T02:47:15;102117.73;;;0.05;78.85
48095;BME280;33874;52.070;-0.516;2023-02-15T02:50:24;102121.06;;;0.02;78.73
48095;BME280;33874;52.070;-0.516;2023-02-15T02:56:41;102119.98;;;0.05;79.24
48095;BME280;33874;52.070;-0.516;2023-02-15T03:09:01;102101.03;;;-0.09;78.63
48095;BME280;33874;52.070;-0.516;2023-02-15T03:14:45;102100.02;;;-0.19;78.42
48095;BME280;33874;52.070;-0.516;2023-02-15T03:17:40;102099.80;;;-0.25;78.53
48095;BME280;33874;52.070;-0.516;2023-02-15T03:26:43;102087.83;;;-0.32;79.12
48095;BME280;33874;52.070;-0.516;2023-02-15T03:53:41;102022.52;;;-0.32;80.08
48095;BME280;33874;52.070;-0.516;2023-02-15T03:59:21;102013.26;;;-0.36;79.34
48095;BME280;33874;52.070;-0.516;2023-02-15T04:05:12;102008.94;;;-0.44;79.64
48095;BME280;33874;52.070;-0.516;2023-02-15T04:07:52;102005.00;;;-0.46;79.25
48095;BME280;33874;52.070;-0.516;2023-02-15T04:10:36;102008.31;;;-0.48;79.18
48095;BME280;33874;52.070;-0.516;2023-02-15T04:13:52;102009.25;;;-0.52;79.64
48095;BME280;33874;52.070;-0.516;2023-02-15T04:19:47;102006.23;;;-0.48;79.80
48095;BME280;33874;52.070;-0.516;2023-02-15T04:25:34;102002.27;;;-0.48;79.68
48095;BME280;33874;52.070;-0.516;2023-02-15T04:47:41;102011.10;;;-0.40;79.84
48095;BME280;33874;52.070;-0.516;2023-02-15T04:50:24;102007.28;;;-0.48;79.78
48095;BME280;33874;52.070;-0.516;2023-02-15T04:53:12;101998.45;;;-0.47;80.16
48095;BME280;33874;52.070;-0.516;2023-02-15T04:59:51;101979.69;;;-0.41;80.52
48095;BME280;33874;52.070;-0.516;2023-02-15T05:02:43;101975.78;;;-0.36;80.37
48095;BME280;33874;52.070;-0.516;2023-02-15T05:08:40;101976.04;;;-0.32;80.37
48095;BME280;33874;52.070;-0.516;2023-02-15T05:17:26;101961.31;;;-0.29;80.83
48095;BME280;33874;52.070;-0.516;2023-02-15T05:26:40;101952.02;;;-0.22;80.95
48095;BME280;33874;52.070;-0.516;2023-02-15T05:35:17;101932.46;;;0.03;81.62
48095;BME280;33874;52.070;-0.516;2023-02-15T05:38:07;101933.97;;;0.12;82.07
48095;BME280;33874;52.070;-0.516;2023-02-15T05:40:52;101930.80;;;0.16;82.07
48095;BME280;33874;52.070;-0.516;2023-02-15T05:43:23;101928.48;;;0.18;81.90
48095;BME280;33874;52.070;-0.516;2023-02-15T05:49:19;101931.69;;;0.22;82.20
48095;BME280;33874;52.070;-0.516;2023-02-15T05:55:05;101927.99;;;0.24;82.28
48095;BME280;33874;52.070;-0.516;2023-02-15T05:57:45;101923.95;;;0.27;82.54
48095;BME280;33874;52.070;-0.516;2023-02-15T06:03:17;101922.77;;;0.34;82.47
48095;BME280;33874;52.070;-0.516;2023-02-15T06:06:01;101920.91;;;0.39;82.52
48095;BME280;33874;52.070;-0.516;2023-02-15T06:08:53;101918.30;;;0.40;82.29
48095;BME280;33874;52.070;-0.516;2023-02-15T06:11:20;101917.41;;;0.41;82.36
48095;BME280;33874;52.070;-0.516;2023-02-15T06:13:54;101918.23;;;0.42;82.30
48095;BME280;33874;52.070;-0.516;2023-02-15T06:16:22;101926.96;;;0.46;82.56
48095;BME280;33874;52.070;-0.516;2023-02-15T06:18:56;101928.84;;;0.55;82.79
48095;BME280;33874;52.070;-0.516;2023-02-15T06:21:43;101927.44;;;0.62;82.81
48095;BME280;33874;52.070;-0.516;2023-02-15T06:24:42;101927.45;;;0.69;83.19
48095;BME280;33874;52.070;-0.516;2023-02-15T06:27:34;101929.38;;;0.75;83.43
48095;BME280;33874;52.070;-0.516;2023-02-15T06:30:39;101929.63;;;0.78;83.09
48095;BME280;33874;52.070;-0.516;2023-02-15T06:33:48;101929.49;;;0.77;82.91
48095;BME280;33874;52.070;-0.516;2023-02-15T06:36:39;101931.46;;;0.75;82.82
48095;BME280;33874;52.070;-0.516;2023-02-15T06:39:35;101927.17;;;0.73;82.58
48095;BME280;33874;52.070;-0.516;2023-02-15T06:42:06;101926.17;;;0.71;82.98
48095;BME280;33874;52.070;-0.516;2023-02-15T06:50:45;101926.88;;;0.57;82.48
48095;BME280;33874;52.070;-0.516;2023-02-15T06:56:15;101931.86;;;0.52;82.35
48095;BME280;33874;52.070;-0.516;2023-02-15T06:58:43;101937.66;;;0.47;82.13
48095;BME280;33874;52.070;-0.516;2023-02-15T07:01:30;101933.91;;;0.45;82.40
48095;BME280;33874;52.070;-0.516;2023-02-15T07:04:19;101934.98;;;0.44;82.46
48095;BME280;33874;52.070;-0.516;2023-02-15T07:06:49;101932.76;;;0.43;82.55
48095;BME280;33874;52.070;-0.516;2023-02-15T07:09:41;101930.69;;;0.42;82.62
48095;BME280;33874;52.070;-0.516;2023-02-15T07:15:05;101931.02;;;0.50;83.38
48095;BME280;33874;52.070;-0.516;2023-02-15T07:17:40;101933.06;;;0.59;83.19
48095;BME280;33874;52.070;-0.516;2023-02-15T07:25:31;101932.17;;;0.74;83.85
48095;BME280;33874;52.070;-0.516;2023-02-15T07:28:11;101934.80;;;0.80;84.14
48095;BME280;33874;52.070;-0.516;2023-02-15T07:37:12;101952.16;;;0.91;83.51
48095;BME280;33874;52.070;-0.516;2023-02-15T07:40:03;101961.16;;;0.91;83.08
48095;BME280;33874;52.070;-0.516;2023-02-15T07:42:51;101959.83;;;0.89;83.03
48095;BME280;33874;52.070;-0.516;2023-02-15T07:48:48;101955.08;;;0.91;83.28
48095;BME280;33874;52.070;-0.516;2023-02-15T07:54:17;101942.41;;;1.07;83.79
48095;BME280;33874;52.070;-0.516;2023-02-15T07:59:57;101940.23;;;1.23;83.85
48095;BME280;33874;52.070;-0.516;2023-02-15T08:11:36;101940.84;;;1.58;84.24
48095;BME280;33874;52.070;-0.516;2023-02-15T08:20:50;101930.27;;;1.94;84.15
48095;BME280;33874;52.070;-0.516;2023-02-15T08:23:26;101930.92;;;2.07;84.63
48095;BME280;33874;52.070;-0.516;2023-02-15T08:25:59;101927.38;;;2.20;85.03
48095;BME280;33874;52.070;-0.516;2023-02-15T08:28:38;101927.45;;;2.34;85.30
48095;BME280;33874;52.070;-0.516;2023-02-15T08:31:25;101928.66;;;2.51;85.39
48095;BME280;33874;52.070;-0.516;2023-02-15T08:34:15;101927.26;;;2.67;85.51
48095;BME280;33874;52.070;-0.516;2023-02-15T08:36:55;101921.33;;;2.83;85.60
48095;BME280;33874;52.070;-0.516;2023-02-15T08:49:12;101908.16;;;3.65;85.81
48095;BME280;33874;52.070;-0.516;2023-02-15T08:54:59;101893.65;;;3.99;85.80
48095;BME280;33874;52.070;-0.516;2023-02-15T08:57:43;101890.64;;;4.13;85.85
48095;BME280;33874;52.070;-0.516;2023-02-15T09:00:26;101890.27;;;4.27;85.75
48095;BME280;33874;52.070;-0.516;2023-02-15T09:06:00;101891.82;;;4.49;85.63
48095;BME280;33874;52.070;-0.516;2023-02-15T09:08:58;101891.89;;;4.60;85.56
48095;BME280;33874;52.070;-0.516;2023-02-15T09:14:57;101884.33;;;4.78;85.36
48095;BME280;33874;52.070;-0.516;2023-02-15T09:23:55;101875.10;;;5.02;85.32
48095;BME280;33874;52.070;-0.516;2023-02-15T09:26:44;101869.15;;;5.11;85.18
48095;BME280;33874;52.070;-0.516;2023-02-15T09:35:27;101848.41;;;5.38;85.21
48095;BME280;33874;52.070;-0.516;2023-02-15T09:38:16;101855.52;;;5.46;85.18
48095;BME280;33874;52.070;-0.516;2023-02-15T09:40:49;101860.11;;;5.53;85.27
48095;BME280;33874;52.070;-0.516;2023-02-15T10:47:38;101844.79;;;7.79;83.94
48095;BME280;33874;52.070;-0.516;2023-02-15T11:12:18;101811.31;;;8.56;82.85
48095;BME280;33874;52.070;-0.516;2023-02-15T11:14:53;101805.76;;;8.67;82.71
48095;BME280;33874;52.070;-0.516;2023-02-15T11:20:25;101819.24;;;8.87;82.30
48095;BME280;33874;52.070;-0.516;2023-02-15T11:33:11;101798.86;;;9.28;81.35
48095;BME280;33874;52.070;-0.516;2023-02-15T11:48:31;101769.25;;;9.71;79.91
48095;BME280;33874;52.070;-0.516;2023-02-15T12:07:09;101773.00;;;10.26;79.01
48095;BME280;33874;52.070;-0.516;2023-02-15T12:12:43;101772.19;;;10.44;78.43
48095;BME280;33874;52.070;-0.516;2023-02-15T12:15:35;101768.08;;;10.50;78.16
48095;BME280;33874;52.070;-0.516;2023-02-15T12:18:04;101770.10;;;10.56;77.89
48095;BME280;33874;52.070;-0.516;2023-02-15T12:20:57;101769.01;;;10.62;77.73
48095;BME280;33874;52.070;-0.516;2023-02-15T12:27:18;101747.08;;;10.76;77.36
48095;BME280;33874;52.070;-0.516;2023-02-15T12:35:38;101744.97;;;10.94;76.54
48095;BME280;33874;52.070;-0.516;2023-02-15T12:40:41;101746.73;;;11.04;76.29
48095;BME280;33874;52.070;-0.516;2023-02-15T12:46:48;101753.69;;;11.15;76.08
48095;BME280;33874;52.070;-0.516;2023-02-15T12:49:43;101748.38;;;11.22;75.93
48095;BME280;33874;52.070;-0.516;2023-02-15T12:56:13;101740.00;;;11.34;75.50
48095;BME280;33874;52.070;-0.516;2023-02-15T13:07:09;101726.09;;;11.61;74.89
48095;BME280;33874;52.070;-0.516;2023-02-15T13:09:47;101722.61;;;11.65;74.67
48095;BME280;33874;52.070;-0.516;2023-02-15T13:16:14;101715.56;;;11.76;74.21
48095;BME280;33874;52.070;-0.516;2023-02-15T13:22:38;101715.77;;;11.88;73.88
48095;BME280;33874;52.070;-0.516;2023-02-15T13:27:44;101724.66;;;11.99;73.40
48095;BME280;33874;52.070;-0.516;2023-02-15T14:32:52;101656.61;;;13.11;70.38
48095;BME280;33874;52.070;-0.516;2023-02-15T14:41:50;101665.49;;;13.26;69.88
48095;BME280;33874;52.070;-0.516;2023-02-15T14:44:54;101667.02;;;13.31;69.81
48095;BME280;33874;52.070;-0.516;2023-02-15T14:47:46;101673.64;;;13.34;69.75
48095;BME280;33874;52.070;-0.516;2023-02-15T15:01:51;101669.75;;;13.41;68.71
48095;BME280;33874;52.070;-0.516;2023-02-15T15:04:31;101673.29;;;13.40;68.44
48095;BME280;33874;52.070;-0.516;2023-02-15T15:09:37;101669.18;;;13.41;68.33
48095;BME280;33874;52.070;-0.516;2023-02-15T15:14:50;101666.96;;;13.36;68.35
48095;BME280;33874;52.070;-0.516;2023-02-15T15:20:11;101667.98;;;13.21;68.16
48095;BME280;33874;52.070;-0.516;2023-02-15T15:22:41;101671.48;;;13.19;68.24
48095;BME280;33874;52.070;-0.516;2023-02-15T15:43:10;101678.10;;;12.90;68.17
48095;BME280;33874;52.070;-0.516;2023-02-15T15:54:11;101679.14;;;13.03;68.35
48095;BME280;33874;52.070;-0.516;2023-02-15T15:56:40;101674.25;;;13.05;68.32
48095;BME280;33874;52.070;-0.516;2023-02-15T15:59:17;101674.38;;;13.06;68.27
48095;BME280;33874;52.070;-0.516;2023-02-15T16:01:46;101673.47;;;13.04;68.29
48095;BME280;33874;52.070;-0.516;2023-02-15T16:04:25;101675.02;;;13.00;68.18
48095;BME280;33874;52.070;-0.516;2023-02-15T16:06:53;101679.69;;;12.94;68.17
48095;BME280;33874;52.070;-0.516;2023-02-15T16:09:25;101681.34;;;12.87;68.24
48095;BME280;33874;52.070;-0.516;2023-02-15T16:11:57;101678.02;;;12.80;68.25
48095;BME280;33874;52.070;-0.516;2023-02-15T16:14:31;101676.83;;;12.70;68.33
48095;BME280;33874;52.070;-0.516;2023-02-15T16:17:02;101672.11;;;12.63;68.37
48095;BME280;33874;52.070;-0.516;2023-02-15T16:19:38;101669.00;;;12.56;68.49
48095;BME280;33874;52.070;-0.516;2023-02-15T16:22:13;101669.41;;;12.48;68.61
48095;BME280;33874;52.070;-0.516;2023-02-15T16:24:47;101667.63;;;12.42;68.63
48095;BME280;33874;52.070;-0.516;2023-02-15T16:27:32;101662.91;;;12.34;68.80
48095;BME280;33874;52.070;-0.516;2023-02-15T16:32:45;101663.58;;;12.23;69.16
48095;BME280;33874;52.070;-0.516;2023-02-15T16:35:17;101670.19;;;12.18;69.23
48095;BME280;33874;52.070;-0.516;2023-02-15T16:37:45;101670.55;;;12.13;69.33
48095;BME280;33874;52.070;-0.516;2023-02-15T16:40:57;101664.88;;;12.09;69.45
48095;BME280;33874;52.070;-0.516;2023-02-15T16:43:06;101662.25;;;12.04;69.60
48095;BME280;33874;52.070;-0.516;2023-02-15T16:45:38;101665.84;;;12.01;69.70
48095;BME280;33874;52.070;-0.516;2023-02-15T16:48:08;101665.66;;;11.98;69.75
48095;BME280;33874;52.070;-0.516;2023-02-15T16:50:40;101662.98;;;11.94;69.77
48095;BME280;33874;52.070;-0.516;2023-02-15T16:53:14;101666.10;;;11.91;69.90
48095;BME280;33874;52.070;-0.516;2023-02-15T16:55:44;101664.43;;;11.87;69.95
48095;BME280;33874;52.070;-0.516;2023-02-15T16:58:15;101667.52;;;11.83;70.08
48095;BME280;33874;52.070;-0.516;2023-02-15T17:00:45;101664.48;;;11.79;70.07
48095;BME280;33874;52.070;-0.516;2023-02-15T17:05:49;101674.91;;;11.71;70.11
48095;BME280;33874;52.070;-0.516;2023-02-15T17:10:46;101671.14;;;11.65;70.48
48095;BME280;33874;52.070;-0.516;2023-02-15T17:13:28;101669.05;;;11.63;70.53
48095;BME280;33874;52.070;-0.516;2023-02-15T17:18:31;101674.13;;;11.61;70.72
48095;BME280;33874;52.070;-0.516;2023-02-15T17:21:01;101678.85;;;11.59;70.76
48095;BME280;33874;52.070;-0.516;2023-02-15T17:23:41;101676.83;;;11.58;70.79
48095;BME280;33874;52.070;-0.516;2023-02-15T17:26:18;101670.74;;;11.56;70.99
48095;BME280;33874;52.070;-0.516;2023-02-15T17:28:50;101674.69;;;11.55;71.01
48095;BME280;33874;52.070;-0.516;2023-02-15T17:31:20;101669.30;;;11.54;71.12
48095;BME280;33874;52.070;-0.516;2023-02-15T17:33:49;101674.05;;;11.52;71.15
48095;BME280;33874;52.070;-0.516;2023-02-15T17:36:19;101677.73;;;11.50;71.19
48095;BME280;33874;52.070;-0.516;2023-02-15T17:39:18;101670.08;;;11.49;71.16
48095;BME280;33874;52.070;-0.516;2023-02-15T17:41:40;101668.03;;;11.48;71.20
48095;BME280;33874;52.070;-0.516;2023-02-15T17:44:09;101671.19;;;11.46;71.20
48095;BME280;33874;52.070;-0.516;2023-02-15T17:46:41;101669.73;;;11.44;71.20
48095;BME280;33874;52.070;-0.516;2023-02-15T17:49:20;101675.91;;;11.44;71.29
48095;BME280;33874;52.070;-0.516;2023-02-15T17:51:50;101676.52;;;11.43;71.34
48095;BME280;33874;52.070;-0.516;2023-02-15T17:54:18;101670.11;;;11.41;71.39
48095;BME280;33874;52.070;-0.516;2023-02-15T17:57:08;101666.65;;;11.38;71.43
48095;BME280;33874;52.070;-0.516;2023-02-15T17:59:39;101668.86;;;11.35;71.36
48095;BME280;33874;52.070;-0.516;2023-02-15T18:02:29;101674.70;;;11.29;71.37
48095;BME280;33874;52.070;-0.516;2023-02-15T18:05:18;101675.52;;;11.25;71.44
48095;BME280;33874;52.070;-0.516;2023-02-15T18:08:14;101669.94;;;11.22;71.54
48095;BME280;33874;52.070;-0.516;2023-02-15T18:11:01;101671.17;;;11.20;71.62
48095;BME280;33874;52.070;-0.516;2023-02-15T18:13:47;101674.08;;;11.18;71.67
48095;BME280;33874;52.070;-0.516;2023-02-15T18:16:16;101676.66;;;11.17;71.72
48095;BME280;33874;52.070;-0.516;2023-02-15T18:18:46;101670.64;;;11.15;71.67
48095;BME280;33874;52.070;-0.516;2023-02-15T18:21:15;101670.78;;;11.13;71.78
48095;BME280;33874;52.070;-0.516;2023-02-15T18:23:43;101673.52;;;11.09;71.77
48095;BME280;33874;52.070;-0.516;2023-02-15T18:26:12;101670.85;;;11.04;71.81
48095;BME280;33874;52.070;-0.516;2023-02-15T18:28:43;101671.27;;;11.01;71.81
48095;BME280;33874;52.070;-0.516;2023-02-15T18:31:11;101670.62;;;10.98;71.91
48095;BME280;33874;52.070;-0.516;2023-02-15T18:33:55;101664.80;;;10.96;71.99
48095;BME280;33874;52.070;-0.516;2023-02-15T18:36:26;101664.80;;;10.94;72.10
48095;BME280;33874;52.070;-0.516;2023-02-15T18:38:55;101666.59;;;10.93;72.18
48095;BME280;33874;52.070;-0.516;2023-02-15T18:41:23;101664.69;;;10.92;72.32
48095;BME280;33874;52.070;-0.516;2023-02-15T18:43:52;101669.63;;;10.92;72.28
48095;BME280;33874;52.070;-0.516;2023-02-15T18:46:23;101670.21;;;10.92;72.42
48095;BME280;33874;52.070;-0.516;2023-02-15T18:48:52;101678.74;;;10.93;72.46
48095;BME280;33874;52.070;-0.516;2023-02-15T18:51:21;101676.05;;;10.94;72.48
48095;BME280;33874;52.070;-0.516;2023-02-15T18:53:51;101676.52;;;10.94;72.53
48095;BME280;33874;52.070;-0.516;2023-02-15T18:56:20;101688.21;;;10.95;72.65
48095;BME280;33874;52.070;-0.516;2023-02-15T18:58:49;101689.14;;;10.95;72.84
48095;BME280;33874;52.070;-0.516;2023-02-15T19:01:18;101692.08;;;10.96;72.95
48095;BME280;33874;52.070;-0.516;2023-02-15T19:03:48;101695.76;;;10.96;73.02
48095;BME280;33874;52.070;-0.516;2023-02-15T19:06:17;101700.05;;;10.95;73.06
48095;BME280;33874;52.070;-0.516;2023-02-15T19:08:46;101701.02;;;10.94;73.25
48095;BME280;33874;52.070;-0.516;2023-02-15T19:11:16;101702.50;;;10.92;73.42
48095;BME280;33874;52.070;-0.516;2023-02-15T19:13:45;101698.39;;;10.91;73.52
48095;BME280;33874;52.070;-0.516;2023-02-15T19:18:55;101704.92;;;10.86;73.74
48095;BME280;33874;52.070;-0.516;2023-02-15T19:21:24;101706.83;;;10.83;73.75
48095;BME280;33874;52.070;-0.516;2023-02-15T19:23:59;101709.40;;;10.82;73.81
48095;BME280;33874;52.070;-0.516;2023-02-15T19:26:29;101708.58;;;10.81;73.97
48095;BME280;33874;52.070;-0.516;2023-02-15T19:29:12;101713.83;;;10.79;74.07
48095;BME280;33874;52.070;-0.516;2023-02-15T19:31:41;101713.83;;;10.77;74.15
48095;BME280;33874;52.070;-0.516;2023-02-15T19:34:11;101716.09;;;10.74;74.29
48095;BME280;33874;52.070;-0.516;2023-02-15T19:36:40;101719.10;;;10.72;74.44
48095;BME280;33874;52.070;-0.516;2023-02-15T19:39:16;101718.85;;;10.70;74.62
48095;BME280;33874;52.070;-0.516;2023-02-15T19:41:47;101727.05;;;10.69;74.70
48095;BME280;33874;52.070;-0.516;2023-02-15T19:44:17;101729.79;;;10.67;74.85
48095;BME280;33874;52.070;-0.516;2023-02-15T19:46:45;101731.75;;;10.65;75.04
48095;BME280;33874;52.070;-0.516;2023-02-15T19:49:13;101736.96;;;10.63;75.14
48095;BME280;33874;52.070;-0.516;2023-02-15T19:51:41;101739.94;;;10.63;75.36
48095;BME280;33874;52.070;-0.516;2023-02-15T19:54:43;101740.08;;;10.61;75.50
48095;BME280;33874;52.070;-0.516;2023-02-15T19:57:03;101744.20;;;10.59;75.85
48095;BME280;33874;52.070;-0.516;2023-02-15T19:59:31;101743.45;;;10.58;76.11
48095;BME280;33874;52.070;-0.516;2023-02-15T20:02:01;101748.01;;;10.55;76.41
48095;BME280;33874;52.070;-0.516;2023-02-15T20:04:29;101754.88;;;10.52;76.68
48095;BME280;33874;52.070;-0.516;2023-02-15T20:06:58;101753.25;;;10.48;76.92
48095;BME280;33874;52.070;-0.516;2023-02-15T20:09:29;101761.07;;;10.44;77.23
48095;BME280;33874;52.070;-0.516;2023-02-15T20:11:57;101770.44;;;10.41;77.42
48095;BME280;33874;52.070;-0.516;2023-02-15T20:14:25;101768.77;;;10.37;77.78
48095;BME280;33874;52.070;-0.516;2023-02-15T20:16:54;101767.66;;;10.33;77.97
48095;BME280;33874;52.070;-0.516;2023-02-15T20:19:22;101766.52;;;10.26;78.12
48095;BME280;33874;52.070;-0.516;2023-02-15T20:21:50;101764.92;;;10.18;78.23
48095;BME280;33874;52.070;-0.516;2023-02-15T20:24:21;101761.65;;;10.12;78.46
48095;BME280;33874;52.070;-0.516;2023-02-15T20:26:51;101764.63;;;10.04;78.51
48095;BME280;33874;52.070;-0.516;2023-02-15T20:29:19;101767.79;;;9.99;78.72
48095;BME280;33874;52.070;-0.516;2023-02-15T20:31:47;101768.55;;;9.93;78.78
48095;BME280;33874;52.070;-0.516;2023-02-15T20:34:15;101763.63;;;9.87;79.02
48095;BME280;33874;52.070;-0.516;2023-02-15T20:36:43;101759.59;;;9.84;79.24
48095;BME280;33874;52.070;-0.516;2023-02-15T20:39:13;101754.32;;;9.82;79.48
48095;BME280;33874;52.070;-0.516;2023-02-15T20:41:50;101748.80;;;9.80;79.59
48095;BME280;33874;52.070;-0.516;2023-02-15T20:44:26;101748.77;;;9.78;79.74
48095;BME280;33874;52.070;-0.516;2023-02-15T20:46:56;101746.39;;;9.77;79.70
48095;BME280;33874;52.070;-0.516;2023-02-15T20:49:25;101748.58;;;9.73;79.91
48095;BME280;33874;52.070;-0.516;2023-02-15T20:51:54;101756.19;;;9.70;79.92
48095;BME280;33874;52.070;-0.516;2023-02-15T20:54:24;101749.70;;;9.64;79.96
48095;BME280;33874;52.070;-0.516;2023-02-15T20:56:52;101746.00;;;9.59;80.11
48095;BME280;33874;52.070;-0.516;2023-02-15T20:59:25;101745.16;;;9.55;80.32
48095;BME280;33874;52.070;-0.516;2023-02-15T21:01:55;101746.84;;;9.51;80.36
48095;BME280;33874;52.070;-0.516;2023-02-15T21:04:28;101749.14;;;9.46;80.31
48095;BME280;33874;52.070;-0.516;2023-02-15T21:06:58;101751.13;;;9.39;80.40
48095;BME280;33874;52.070;-0.516;2023-02-15T21:09:26;101755.78;;;9.35;80.45
48095;BME280;33874;52.070;-0.516;2023-02-15T21:11:55;101757.83;;;9.30;80.51
48095;BME280;33874;52.070;-0.516;2023-02-15T21:14:25;101758.45;;;9.23;80.29
48095;BME280;33874;52.070;-0.516;2023-02-15T21:16:53;101765.35;;;9.17;80.41
48095;BME280;33874;52.070;-0.516;2023-02-15T21:19:22;101770.59;;;9.11;80.58
48095;BME280;33874;52.070;-0.516;2023-02-15T21:21:51;101766.51;;;9.07;80.61
48095;BME280;33874;52.070;-0.516;2023-02-15T21:24:22;101764.31;;;9.03;80.66
48095;BME280;33874;52.070;-0.516;2023-02-15T21:26:51;101764.48;;;8.97;80.74
48095;BME280;33874;52.070;-0.516;2023-02-15T21:29:24;101762.74;;;8.91;80.75
48095;BME280;33874;52.070;-0.516;2023-02-15T21:31:53;101770.83;;;8.85;80.70
48095;BME280;33874;52.070;-0.516;2023-02-15T21:34:25;101774.54;;;8.79;80.74
48095;BME280;33874;52.070;-0.516;2023-02-15T21:36:53;101775.17;;;8.71;80.76
48095;BME280;33874;52.070;-0.516;2023-02-15T21:39:22;101772.98;;;8.64;80.85
48095;BME280;33874;52.070;-0.516;2023-02-15T21:41:51;101775.11;;;8.58;80.79
48095;BME280;33874;52.070;-0.516;2023-02-15T21:44:38;101778.38;;;8.50;80.91
48095;BME280;33874;52.070;-0.516;2023-02-15T21:47:27;101780.19;;;8.43;81.05
48095;BME280;33874;52.070;-0.516;2023-02-15T21:50:15;101780.30;;;8.38;81.20
48095;BME280;33874;52.070;-0.516;2023-02-15T21:53:02;101772.86;;;8.33;81.36
48095;BME280;33874;52.070;-0.516;2023-02-15T21:55:31;101775.25;;;8.29;81.34
48095;BME280;33874;52.070;-0.516;2023-02-15T21:57:59;101771.45;;;8.25;81.43
48095;BME280;33874;52.070;-0.516;2023-02-15T22:00:28;101773.22;;;8.22;81.67
48095;BME280;33874;52.070;-0.516;2023-02-15T22:02:57;101774.67;;;8.17;81.55
48095;BME280;33874;52.070;-0.516;2023-02-15T22:05:31;101775.55;;;8.11;81.40
48095;BME280;33874;52.070;-0.516;2023-02-15T22:08:00;101779.29;;;8.04;81.32
48095;BME280;33874;52.070;-0.516;2023-02-15T22:10:28;101780.18;;;7.98;81.35
48095;BME280;33874;52.070;-0.516;2023-02-15T22:12:58;101777.77;;;7.94;81.62
48095;BME280;33874;52.070;-0.516;2023-02-15T22:15:28;101775.83;;;7.91;81.76
48095;BME280;33874;52.070;-0.516;2023-02-15T22:17:58;101779.15;;;7.89;81.63
48095;BME280;33874;52.070;-0.516;2023-02-15T22:20:26;101781.92;;;7.86;81.74
48095;BME280;33874;52.070;-0.516;2023-02-15T22:22:57;101787.27;;;7.84;81.82
48095;BME280;33874;52.070;-0.516;2023-02-15T22:25:25;101785.79;;;7.83;81.95
48095;BME280;33874;52.070;-0.516;2023-02-15T22:28:00;101782.94;;;7.81;82.01
48095;BME280;33874;52.070;-0.516;2023-02-15T22:30:29;101782.02;;;7.78;81.89
48095;BME280;33874;52.070;-0.516;2023-02-15T22:33:00;101783.44;;;7.75;82.03
48095;BME280;33874;52.070;-0.516;2023-02-15T22:35:30;101781.84;;;7.72;82.10
48095;BME280;33874;52.070;-0.516;2023-02-15T22:37:58;101784.71;;;7.70;82.17
48095;BME280;33874;52.070;-0.516;2023-02-15T22:40:28;101781.79;;;7.66;82.12
48095;BME280;33874;52.070;-0.516;2023-02-15T22:43:26;101781.67;;;7.62;82.01
48095;BME280;33874;52.070;-0.516;2023-02-15T22:45:58;101777.23;;;7.58;82.08
48095;BME280;33874;52.070;-0.516;2023-02-15T22:48:28;101782.15;;;7.54;82.15
48095;BME280;33874;52.070;-0.516;2023-02-15T22:50:56;101780.89;;;7.52;82.17
48095;BME280;33874;52.070;-0.516;2023-02-15T22:53:24;101783.66;;;7.49;82.08
48095;BME280;33874;52.070;-0.516;2023-02-15T22:55:52;101790.19;;;7.44;82.28